createdAt,value
2023-04-18T00:01:15.085Z,8.32
2023-04-18T00:06:19.459Z,8.25
2023-04-18T00:11:22.974Z,8.52
2023-04-18T00:16:28.542Z,9.02
2023-04-18T00:21:32.268Z,8.95
2023-04-18T00:26:35.802Z,8.23
2023-04-18T00:31:40.711Z,8.57
2023-04-18T00:41:47.334Z,8.02
2023-04-18T00:46:52.258Z,8.45
2023-04-18T00:56:59.484Z,8.60
2023-04-18T01:02:05.500Z,8.35
2023-04-18T01:07:09.542Z,8.30
2023-04-18T01:12:13.054Z,8.03
2023-04-18T01:17:18.109Z,9.35
2023-04-18T01:22:21.799Z,9.13
2023-04-18T01:27:26.829Z,7.95
2023-04-18T01:32:30.434Z,8.45
2023-04-18T01:37:34.104Z,8.27
2023-04-18T01:42:39.222Z,9.20
2023-04-18T01:47:42.644Z,7.88
2023-04-18T01:52:46.131Z,8.55
2023-04-18T01:57:51.962Z,8.60
2023-04-18T02:02:55.583Z,8.18
2023-04-18T02:07:59.392Z,9.20
2023-04-18T02:13:04.356Z,9.07
2023-04-18T02:23:13.632Z,9.00
2023-04-18T02:28:18.486Z,9.23
2023-04-18T02:38:25.184Z,9.27
2023-04-18T02:43:30.238Z,8.57
2023-04-18T02:53:37.110Z,10.00
2023-04-18T02:58:42.016Z,9.57
2023-04-18T03:08:48.779Z,10.27
2023-04-18T03:13:55.225Z,10.40
2023-04-18T03:18:58.684Z,10.15
2023-04-18T03:24:02.412Z,10.00
2023-04-18T03:29:07.616Z,10.40
2023-04-18T03:34:11.245Z,10.18
2023-04-18T03:39:15.130Z,10.43
2023-04-18T03:44:20.320Z,11.10
2023-04-18T03:49:24.037Z,9.90
2023-04-18T03:54:27.644Z,11.70
2023-04-18T03:59:32.580Z,9.98
2023-04-18T04:09:39.217Z,10.23
2023-04-18T04:14:44.281Z,10.40
2023-04-18T04:19:47.766Z,10.90
2023-04-18T04:24:51.941Z,9.80
2023-04-18T04:29:57.341Z,10.80
2023-04-18T04:35:00.983Z,11.70
2023-04-18T04:40:06.478Z,11.75
2023-04-18T04:45:12.647Z,12.20
2023-04-18T04:50:16.745Z,12.70
2023-04-18T04:55:20.437Z,12.67
2023-04-18T05:00:25.650Z,10.93
2023-04-18T05:05:29.396Z,11.45
2023-04-18T05:10:33.263Z,12.15
2023-04-18T05:15:38.236Z,12.43
2023-04-18T05:20:41.810Z,13.57
2023-04-18T05:25:45.355Z,11.27
2023-04-18T05:30:50.256Z,9.80
2023-04-18T05:35:53.874Z,12.30
2023-04-18T05:41:00.422Z,12.13
2023-04-18T05:46:05.667Z,9.88
2023-04-18T05:51:11.452Z,9.80
2023-04-18T05:56:15.654Z,16.63
2023-04-18T06:06:25.970Z,11.57
2023-04-18T06:11:33.599Z,13.00
2023-04-18T06:16:39.271Z,10.88
2023-04-18T06:21:43.224Z,10.77
2023-04-18T06:26:47.491Z,10.40
2023-04-18T06:31:52.724Z,12.13
2023-04-18T06:36:56.715Z,10.55
2023-04-18T06:42:00.205Z,10.90
2023-04-18T06:47:05.756Z,10.32
2023-04-18T06:52:12.219Z,10.25
2023-04-18T06:57:15.862Z,10.57
2023-04-18T07:02:20.965Z,10.13
2023-04-18T07:07:26.558Z,10.63
2023-04-18T07:12:30.097Z,8.85
2023-04-18T07:17:35.633Z,9.00
2023-04-18T07:22:41.439Z,8.07
2023-04-18T07:27:45.736Z,8.25
2023-04-18T07:32:50.805Z,8.77
2023-04-18T07:37:54.688Z,19.70
2023-04-18T07:42:58.300Z,8.55
2023-04-18T07:48:03.556Z,16.70
2023-04-18T07:53:08.650Z,9.45
2023-04-18T07:58:12.348Z,9.05
2023-04-18T08:03:17.817Z,9.43
2023-04-18T08:08:21.664Z,8.30
2023-04-18T08:13:25.581Z,8.40
2023-04-18T08:18:30.554Z,8.37
2023-04-18T08:23:34.035Z,7.95
2023-04-18T08:28:38.022Z,7.90
2023-04-18T08:33:43.757Z,8.85
2023-04-18T08:38:47.769Z,9.13
2023-04-18T08:43:51.276Z,8.15
2023-04-18T08:48:58.724Z,8.80
2023-04-18T08:54:04.744Z,8.82
2023-04-18T08:59:09.731Z,8.75
2023-04-18T09:04:31.908Z,9.27
2023-04-18T09:09:46.777Z,9.10
2023-04-18T09:14:51.640Z,8.18
2023-04-18T09:19:56.866Z,8.27
2023-04-18T09:25:00.518Z,8.43
2023-04-18T09:30:04.433Z,8.70
2023-04-18T09:35:10.453Z,8.65
2023-04-18T09:40:19.159Z,8.85
2023-04-18T09:45:25.498Z,8.40
2023-04-18T09:50:31.372Z,8.02
2023-04-18T09:55:35.614Z,8.63
2023-04-18T10:05:46.114Z,7.00
2023-04-18T10:10:49.637Z,7.13
2023-04-18T10:15:54.820Z,6.38
2023-04-18T10:21:04.856Z,6.22
2023-04-18T10:26:09.216Z,6.72
2023-04-18T10:36:20.632Z,5.70
2023-04-18T10:41:26.589Z,5.50
2023-04-18T10:46:32.804Z,5.78
2023-04-18T10:51:38.441Z,5.93
2023-04-18T10:56:42.185Z,5.38
2023-04-18T11:01:50.600Z,5.03
2023-04-18T11:06:58.446Z,5.70
2023-04-18T11:12:07.081Z,5.13
2023-04-18T11:17:21.034Z,6.47
2023-04-18T11:22:26.512Z,6.15
2023-04-18T11:27:31.358Z,6.10
2023-04-18T11:32:36.109Z,5.80
2023-04-18T11:37:42.038Z,6.13
2023-04-18T11:42:48.496Z,6.15
2023-04-18T11:47:58.283Z,6.03
2023-04-18T11:53:03.305Z,5.97
2023-04-18T11:58:07.578Z,5.85
2023-04-18T12:03:18.014Z,6.10
2023-04-18T12:08:23.193Z,6.00
2023-04-18T12:13:28.295Z,6.93
2023-04-18T12:18:32.824Z,6.90
2023-04-18T12:23:40.510Z,7.07
2023-04-18T12:28:48.197Z,6.45
2023-04-18T12:33:51.786Z,7.10
2023-04-18T12:38:57.072Z,6.97
2023-04-18T12:44:01.760Z,6.75
2023-04-18T12:49:05.681Z,7.70
2023-04-18T12:54:10.617Z,7.28
2023-04-18T12:59:14.569Z,8.18
2023-04-18T13:04:18.996Z,7.80
2023-04-18T13:09:27.053Z,8.05
2023-04-18T13:14:30.750Z,7.00
2023-04-18T13:19:34.780Z,6.33
2023-04-18T13:24:39.731Z,6.57
2023-04-18T13:29:45.809Z,6.90
2023-04-18T13:34:50.212Z,6.60
2023-04-18T13:39:55.121Z,7.40
2023-04-18T13:45:00.170Z,6.78
2023-04-18T13:50:04.349Z,6.68
2023-04-18T13:55:12.575Z,7.03
2023-04-18T14:00:19.676Z,6.72
2023-04-18T14:05:24.097Z,7.38
2023-04-18T14:10:29.212Z,7.18
2023-04-18T14:15:33.425Z,6.97
2023-04-18T14:20:37.725Z,7.17
2023-04-18T14:25:42.706Z,6.85
2023-04-18T14:30:46.516Z,6.82
2023-04-18T14:35:50.096Z,7.20
2023-04-18T14:40:55.472Z,6.45
2023-04-18T14:45:59.840Z,6.50
2023-04-18T14:51:03.676Z,6.70
2023-04-18T14:56:09.241Z,6.85
2023-04-18T15:01:13.006Z,6.65
2023-04-18T15:06:16.807Z,6.70
2023-04-18T15:11:22.013Z,6.50
2023-04-18T15:16:26.002Z,6.30
2023-04-18T15:21:29.763Z,6.55
2023-04-18T15:26:34.762Z,6.93
2023-04-18T15:31:39.152Z,7.13
2023-04-18T15:36:43.292Z,7.35
2023-04-18T15:41:52.757Z,7.15
2023-04-18T15:46:56.348Z,7.10
2023-04-18T15:51:59.826Z,7.20
2023-04-18T15:57:04.769Z,7.20
2023-04-18T16:02:09.909Z,7.20
2023-04-18T16:07:13.690Z,7.75
2023-04-18T16:12:19.422Z,7.35
2023-04-18T16:17:23.055Z,7.32
2023-04-18T16:22:26.608Z,7.90
2023-04-18T16:27:32.287Z,8.10
2023-04-18T16:32:35.938Z,8.55
2023-04-18T16:37:39.900Z,8.00
2023-04-18T16:42:44.920Z,8.67
2023-04-18T16:47:48.615Z,7.15
2023-04-18T16:52:52.259Z,6.90
2023-04-18T16:57:57.517Z,7.38
2023-04-18T17:03:01.841Z,7.45
2023-04-18T17:08:05.836Z,7.53
2023-04-18T17:13:10.888Z,6.63
2023-04-18T17:18:15.181Z,7.78
2023-04-18T17:23:18.808Z,7.00
2023-04-18T17:28:25.954Z,7.50
2023-04-18T17:33:29.529Z,7.00
2023-04-18T17:38:33.212Z,7.32
2023-04-18T17:43:38.377Z,7.45
2023-04-18T17:48:42.360Z,7.47
2023-04-18T17:53:46.123Z,7.43
2023-04-18T17:58:51.679Z,7.50
2023-04-18T18:03:55.825Z,6.82
2023-04-18T18:08:59.748Z,7.65
2023-04-18T18:14:04.733Z,7.03
2023-04-18T18:19:08.493Z,7.07
2023-04-18T18:24:12.552Z,6.80
2023-04-18T18:29:19.601Z,6.60
2023-04-18T18:34:23.219Z,7.13
2023-04-18T18:39:27.759Z,7.32
2023-04-18T18:44:33.760Z,7.32
2023-04-18T18:49:37.580Z,8.27
2023-04-18T18:54:41.123Z,7.23
2023-04-18T18:59:46.197Z,8.82
2023-04-18T19:04:49.879Z,8.93
2023-04-18T19:09:55.375Z,10.05
2023-04-18T19:15:00.349Z,9.85
2023-04-18T19:20:04.574Z,8.05
2023-04-18T19:25:11.047Z,8.38
2023-04-18T19:35:19.475Z,7.70
2023-04-18T19:40:26.743Z,8.48
2023-04-18T19:45:32.068Z,7.55
2023-04-18T19:50:35.605Z,8.30
2023-04-18T19:55:39.422Z,7.28
2023-04-18T20:00:44.381Z,7.53
2023-04-18T20:05:48.024Z,7.10
2023-04-18T20:10:51.558Z,7.70
2023-04-18T20:15:56.687Z,7.35
2023-04-18T20:21:00.239Z,7.72
2023-04-18T20:26:04.582Z,6.82
2023-04-18T20:31:09.648Z,6.85
2023-04-18T20:36:14.227Z,6.65
2023-04-18T20:41:18.335Z,6.50
2023-04-18T20:46:23.504Z,6.85
2023-04-18T20:51:28.060Z,6.78
2023-04-18T20:56:32.141Z,6.45
2023-04-18T21:01:37.366Z,6.70
2023-04-18T21:06:40.896Z,6.72
2023-04-18T21:11:44.467Z,5.93
2023-04-18T21:16:49.734Z,6.03
2023-04-18T21:21:53.222Z,5.60
2023-04-18T21:26:57.897Z,6.03
2023-04-18T21:32:02.797Z,5.70
2023-04-18T21:37:06.390Z,6.07
2023-04-18T21:42:10.037Z,6.57
2023-04-18T21:47:14.960Z,5.93
2023-04-18T21:57:21.652Z,5.60
2023-04-18T22:02:26.985Z,5.50
2023-04-18T22:07:31.204Z,5.30
2023-04-18T22:12:35.396Z,5.78
2023-04-18T22:17:41.847Z,5.07
2023-04-18T22:22:45.572Z,6.13
2023-04-18T22:27:49.050Z,5.85
2023-04-18T22:32:54.101Z,5.78
2023-04-18T22:37:57.729Z,5.40
2023-04-18T22:43:01.450Z,5.38
2023-04-18T22:48:11.475Z,5.32
2023-04-18T22:53:15.500Z,5.28
2023-04-18T22:58:19.042Z,4.87
2023-04-18T23:03:24.130Z,5.07
2023-04-18T23:08:28.722Z,4.97
2023-04-18T23:13:33.617Z,5.00
2023-04-18T23:18:38.585Z,4.38
2023-04-18T23:23:42.104Z,4.70
2023-04-18T23:28:45.596Z,5.43
2023-04-18T23:33:50.668Z,5.68
2023-04-18T23:38:54.209Z,5.18
2023-04-18T23:43:57.753Z,5.50
2023-04-18T23:49:02.656Z,5.22
2023-04-18T23:59:09.386Z,5.43
